createdAt,value
2022-12-15T00:02:20.689Z,26.08
2022-12-15T00:05:27.167Z,25.55
2022-12-15T00:08:33.281Z,24.55
2022-12-15T00:11:39.457Z,26.85
2022-12-15T00:14:45.733Z,30.63
2022-12-15T00:17:51.810Z,31.13
2022-12-15T00:20:59.057Z,24.55
2022-12-15T00:24:05.116Z,31.05
2022-12-15T00:27:11.184Z,30.95
2022-12-15T00:30:17.032Z,23.13
2022-12-15T00:33:30.581Z,25.60
2022-12-15T00:36:36.803Z,26.77
2022-12-15T00:39:24.555Z,24.60
2022-12-15T00:42:12.272Z,25.90
2022-12-15T00:44:59.941Z,27.13
2022-12-15T00:47:47.579Z,28.60
2022-12-15T00:50:53.117Z,24.63
2022-12-15T00:53:59.695Z,29.17
2022-12-15T00:57:06.021Z,26.52
2022-12-15T01:00:12.214Z,27.02
2022-12-15T01:03:18.443Z,27.27
2022-12-15T01:06:31.144Z,27.40
2022-12-15T01:09:37.066Z,27.10
2022-12-15T01:12:43.126Z,25.55
2022-12-15T01:15:51.123Z,21.58
2022-12-15T01:18:57.167Z,19.70
2022-12-15T01:21:44.987Z,24.08
2022-12-15T01:24:32.879Z,28.33
2022-12-15T01:27:20.568Z,24.58
2022-12-15T01:30:11.092Z,22.88
2022-12-15T01:32:58.792Z,22.38
2022-12-15T01:35:55.984Z,24.55
2022-12-15T01:38:49.345Z,23.20
2022-12-15T01:41:40.021Z,23.08
2022-12-15T01:44:27.762Z,28.70
2022-12-15T01:47:16.172Z,18.40
2022-12-15T01:50:04.372Z,21.42
2022-12-15T01:52:54.445Z,24.50
2022-12-15T01:55:44.582Z,22.48
2022-12-15T01:58:37.012Z,25.10
2022-12-15T02:01:24.959Z,22.05
2022-12-15T02:04:13.053Z,18.27
2022-12-15T02:07:00.744Z,24.95
2022-12-15T02:09:53.757Z,20.50
2022-12-15T02:13:04.569Z,26.05
2022-12-15T02:16:11.236Z,22.33
2022-12-15T02:19:29.893Z,22.90
2022-12-15T02:23:14.405Z,23.38
2022-12-15T02:26:26.213Z,23.77
2022-12-15T02:29:39.695Z,31.38
2022-12-15T02:32:34.148Z,27.63
2022-12-15T02:35:31.047Z,33.15
2022-12-15T02:38:34.072Z,27.83
2022-12-15T02:41:36.142Z,28.98
2022-12-15T02:44:26.416Z,44.97
2022-12-15T02:47:35.211Z,36.80
2022-12-15T02:51:04.782Z,39.95
2022-12-15T02:54:20.035Z,38.17
2022-12-15T02:57:34.668Z,46.50
2022-12-15T03:00:23.174Z,51.80
2022-12-15T03:03:14.092Z,48.38
2022-12-15T03:06:03.512Z,56.10
2022-12-15T03:08:51.378Z,51.55
2022-12-15T03:11:39.177Z,57.67
2022-12-15T03:14:27.368Z,48.78
2022-12-15T03:17:17.428Z,58.53
2022-12-15T03:20:05.962Z,54.35
2022-12-15T03:22:54.156Z,45.08
2022-12-15T03:25:49.950Z,44.90
2022-12-15T03:28:37.871Z,51.67
2022-12-15T03:31:26.372Z,49.45
2022-12-15T03:34:14.088Z,46.60
2022-12-15T03:37:01.855Z,41.70
2022-12-15T03:39:49.982Z,39.38
2022-12-15T03:42:49.787Z,38.65
2022-12-15T03:45:37.547Z,36.45
2022-12-15T03:48:25.156Z,39.22
2022-12-15T03:51:12.990Z,40.13
2022-12-15T03:54:00.658Z,43.80
2022-12-15T03:56:48.495Z,41.67
2022-12-15T03:59:36.134Z,40.85
2022-12-15T04:02:23.991Z,39.58
2022-12-15T04:05:32.695Z,43.60
2022-12-15T04:08:26.928Z,45.85
2022-12-15T04:11:14.737Z,36.60
2022-12-15T04:14:02.783Z,32.47
2022-12-15T04:16:50.520Z,41.53
2022-12-15T04:19:57.319Z,46.90
2022-12-15T04:22:47.242Z,35.22
2022-12-15T04:25:54.675Z,39.95
2022-12-15T04:29:00.641Z,36.45
2022-12-15T04:32:07.021Z,42.33
2022-12-15T04:35:13.231Z,36.28
2022-12-15T04:38:20.635Z,34.97
2022-12-15T04:41:27.214Z,29.85
2022-12-15T04:44:33.647Z,43.95
2022-12-15T04:47:40.206Z,43.88
2022-12-15T04:50:48.464Z,35.15
2022-12-15T04:54:14.239Z,32.67
2022-12-15T04:57:20.744Z,38.13
2022-12-15T05:00:30.551Z,36.83
2022-12-15T05:03:39.543Z,37.55
2022-12-15T05:06:46.318Z,27.65
2022-12-15T05:09:52.789Z,33.85
2022-12-15T05:12:58.695Z,27.05
2022-12-15T05:16:04.966Z,31.92
2022-12-15T05:19:11.589Z,31.48
2022-12-15T05:22:17.988Z,27.15
2022-12-15T05:25:24.438Z,26.13
2022-12-15T05:28:30.727Z,22.55
2022-12-15T05:31:36.938Z,23.88
2022-12-15T05:34:27.380Z,27.65
2022-12-15T05:37:15.363Z,27.27
2022-12-15T05:40:03.032Z,22.92
2022-12-15T05:42:35.746Z,24.77
2022-12-15T05:45:23.445Z,20.90
2022-12-15T05:48:11.189Z,23.33
2022-12-15T05:51:07.741Z,29.02
2022-12-15T05:53:55.568Z,29.20
2022-12-15T05:56:43.327Z,24.05
2022-12-15T05:59:31.034Z,23.85
2022-12-15T06:02:18.797Z,20.67
2022-12-15T06:05:07.169Z,20.05
2022-12-15T06:07:54.932Z,16.13
2022-12-15T06:10:42.685Z,21.98
2022-12-15T06:13:32.061Z,20.50
2022-12-15T06:16:21.331Z,20.63
2022-12-15T06:19:11.692Z,20.13
2022-12-15T06:22:01.114Z,17.92
2022-12-15T06:24:48.780Z,16.73
2022-12-15T06:27:38.096Z,22.83
2022-12-15T06:30:26.056Z,15.45
2022-12-15T06:33:14.046Z,16.48
2022-12-15T06:36:07.742Z,21.33
2022-12-15T06:38:58.448Z,13.23
2022-12-15T06:41:47.007Z,17.42
2022-12-15T06:44:34.666Z,20.77
2022-12-15T06:47:22.470Z,17.48
2022-12-15T06:50:10.289Z,21.58
2022-12-15T06:52:59.451Z,18.65
2022-12-15T06:55:48.366Z,23.50
2022-12-15T06:58:36.190Z,22.23
2022-12-15T07:01:24.999Z,17.10
2022-12-15T07:04:12.978Z,25.45
2022-12-15T07:07:02.069Z,21.52
2022-12-15T07:09:49.728Z,18.00
2022-12-15T07:12:37.447Z,15.40
2022-12-15T07:15:25.794Z,12.73
2022-12-15T07:18:13.553Z,11.35
2022-12-15T07:21:06.689Z,10.55
2022-12-15T07:23:56.226Z,8.45
2022-12-15T07:26:46.615Z,8.73
2022-12-15T07:29:37.663Z,7.80
2022-12-15T07:32:25.434Z,5.63
2022-12-15T07:35:13.398Z,7.35
2022-12-15T07:38:01.105Z,6.07
2022-12-15T07:40:49.439Z,7.55
2022-12-15T07:43:37.970Z,10.55
2022-12-15T07:46:26.688Z,8.13
2022-12-15T07:49:14.402Z,10.13
2022-12-15T07:52:02.089Z,6.53
2022-12-15T07:54:53.857Z,10.15
2022-12-15T07:57:42.617Z,10.98
2022-12-15T08:00:34.022Z,11.30
2022-12-15T08:03:22.353Z,6.82
2022-12-15T08:06:15.074Z,7.05
2022-12-15T08:09:05.601Z,7.35
2022-12-15T08:11:59.502Z,10.02
2022-12-15T08:14:52.761Z,14.88
2022-12-15T08:17:46.777Z,7.55
2022-12-15T08:20:39.996Z,5.63
2022-12-15T08:23:29.397Z,6.05
2022-12-15T08:26:26.593Z,8.60
2022-12-15T08:32:28.939Z,5.55
2022-12-15T08:35:46.771Z,3.50
2022-12-15T08:38:24.252Z,3.28
2022-12-15T08:41:24.409Z,7.25
2022-12-15T08:44:12.185Z,5.32
2022-12-15T08:46:59.948Z,3.53
2022-12-15T08:49:53.607Z,7.47
2022-12-15T08:53:00.654Z,3.33
2022-12-15T08:55:50.668Z,6.30
2022-12-15T08:58:38.829Z,6.68
2022-12-15T09:01:28.699Z,6.20
2022-12-15T09:04:17.869Z,5.75
2022-12-15T09:07:05.624Z,4.43
2022-12-15T09:09:59.008Z,5.15
2022-12-15T09:12:50.900Z,5.57
2022-12-15T09:16:07.752Z,6.47
2022-12-15T09:18:51.971Z,5.03
2022-12-15T09:21:40.563Z,5.18
2022-12-15T09:24:34.836Z,2.60
2022-12-15T09:27:23.693Z,8.15
2022-12-15T09:30:11.736Z,22.55
2022-12-15T09:32:59.490Z,10.18
2022-12-15T09:35:51.880Z,3.55
2022-12-15T09:38:43.357Z,9.48
2022-12-15T09:41:37.047Z,9.32
2022-12-15T09:44:30.400Z,10.70
2022-12-15T09:47:37.457Z,8.68
2022-12-15T09:50:32.802Z,5.88
2022-12-15T09:53:53.448Z,3.80
2022-12-15T09:59:56.024Z,3.05
2022-12-15T10:03:32.421Z,5.78
2022-12-15T10:06:57.697Z,23.17
2022-12-15T10:09:47.673Z,10.10
2022-12-15T10:15:56.833Z,12.65
2022-12-15T10:19:16.394Z,15.38
2022-12-15T10:22:31.061Z,7.40
2022-12-15T10:25:30.058Z,8.13
2022-12-15T10:28:45.472Z,3.88
2022-12-15T10:31:56.724Z,10.07
2022-12-15T10:34:44.590Z,5.18
2022-12-15T10:37:32.397Z,2.08
2022-12-15T10:40:50.746Z,2.60
2022-12-15T10:43:44.586Z,4.55
2022-12-15T10:46:34.987Z,1.75
2022-12-15T10:49:26.659Z,3.05
2022-12-15T10:52:32.764Z,2.67
2022-12-15T10:55:39.120Z,3.53
2022-12-15T10:58:29.794Z,0.55
2022-12-15T11:01:25.422Z,1.33
2022-12-15T11:05:05.779Z,1.80
2022-12-15T11:08:14.752Z,4.20
2022-12-15T11:11:26.063Z,5.32
2022-12-15T11:14:17.762Z,1.35
2022-12-15T11:17:07.644Z,3.97
2022-12-15T11:20:03.187Z,1.75
2022-12-15T11:23:02.102Z,3.08
2022-12-15T11:26:06.836Z,3.10
2022-12-15T11:29:10.304Z,3.70
2022-12-15T11:32:06.753Z,2.55
2022-12-15T11:34:55.551Z,7.10
2022-12-15T11:37:52.059Z,2.50
2022-12-15T11:40:43.971Z,2.03
2022-12-15T11:44:07.017Z,3.45
2022-12-15T11:47:04.829Z,3.13
2022-12-15T11:50:08.835Z,2.72
2022-12-15T11:53:35.861Z,2.08
2022-12-15T11:56:41.785Z,4.38
2022-12-15T11:59:32.228Z,5.82
2022-12-15T12:02:34.353Z,2.10
2022-12-15T12:05:38.444Z,2.75
2022-12-15T12:08:59.214Z,4.20
2022-12-15T12:12:05.310Z,39.50
2022-12-15T12:15:01.987Z,3.67
2022-12-15T12:17:56.227Z,19.70
2022-12-15T12:20:50.258Z,11.02
2022-12-15T12:24:10.134Z,3.28
2022-12-15T12:27:19.201Z,4.80
2022-12-15T12:30:15.463Z,5.28
2022-12-15T12:33:03.049Z,7.53
2022-12-15T12:36:00.671Z,6.00
2022-12-15T12:38:56.345Z,6.10
2022-12-15T12:41:58.586Z,4.78
2022-12-15T12:44:46.475Z,12.18
2022-12-15T12:47:38.879Z,7.95
2022-12-15T12:50:31.135Z,3.47
2022-12-15T12:53:33.454Z,4.45
2022-12-15T12:56:48.829Z,4.65
2022-12-15T12:59:41.715Z,5.28
2022-12-15T13:02:41.335Z,22.10
2022-12-15T13:05:33.828Z,5.32
2022-12-15T13:12:20.922Z,5.05
2022-12-15T13:15:18.923Z,10.48
2022-12-15T13:18:19.060Z,3.92
2022-12-15T13:21:36.184Z,10.95
2022-12-15T13:24:35.995Z,8.15
2022-12-15T13:27:36.946Z,10.27
2022-12-15T13:30:24.891Z,4.15
2022-12-15T13:33:19.453Z,5.97
2022-12-15T13:36:08.036Z,8.13
2022-12-15T13:38:56.519Z,7.55
2022-12-15T13:45:11.751Z,10.15
2022-12-15T13:48:01.163Z,5.22
2022-12-15T13:51:02.814Z,17.58
2022-12-15T13:54:12.210Z,12.73
2022-12-15T13:57:10.237Z,8.35
2022-12-15T14:00:20.532Z,7.70
2022-12-15T14:03:15.066Z,12.43
2022-12-15T14:06:05.755Z,9.52
2022-12-15T14:08:53.697Z,8.95
2022-12-15T14:11:53.077Z,6.97
2022-12-15T14:14:52.789Z,7.50
2022-12-15T14:17:49.161Z,8.50
2022-12-15T14:20:41.526Z,7.57
2022-12-15T14:23:40.791Z,11.43
2022-12-15T14:26:31.259Z,19.25
2022-12-15T14:29:19.171Z,61.53
2022-12-15T14:32:10.480Z,17.00
2022-12-15T14:34:58.231Z,10.50
2022-12-15T14:37:46.002Z,21.67
2022-12-15T14:40:38.119Z,20.35
2022-12-15T14:43:29.982Z,18.20
2022-12-15T14:49:10.961Z,21.13
2022-12-15T14:52:07.704Z,32.30
2022-12-15T14:55:00.984Z,31.08
2022-12-15T14:57:52.647Z,22.38
2022-12-15T15:00:54.102Z,28.42
2022-12-15T15:03:03.796Z,10.32
2022-12-15T15:03:05.497Z,12.55
2022-12-15T15:03:07.287Z,6.03
2022-12-15T15:03:59.776Z,28.02
2022-12-15T15:06:56.473Z,36.13
2022-12-15T15:09:46.399Z,32.13
2022-12-15T15:12:45.256Z,43.35
2022-12-15T15:15:34.692Z,66.80
2022-12-15T15:18:29.983Z,58.65
2022-12-15T15:21:24.137Z,56.75
2022-12-15T15:24:11.845Z,41.78
2022-12-15T15:27:38.614Z,36.92
2022-12-15T15:30:26.473Z,34.97
2022-12-15T15:33:14.592Z,41.10
2022-12-15T15:36:04.426Z,41.17
2022-12-15T15:38:52.454Z,59.83
2022-12-15T15:41:42.134Z,58.33
2022-12-15T15:44:29.986Z,52.78
2022-12-15T15:47:27.494Z,64.93
2022-12-15T15:50:18.091Z,303.75
2022-12-15T15:53:05.848Z,428.90
2022-12-15T15:55:56.185Z,195.82
2022-12-15T15:58:47.146Z,136.45
2022-12-15T16:01:34.896Z,92.07
2022-12-15T16:04:26.862Z,72.82
2022-12-15T16:07:25.043Z,61.90
2022-12-15T16:10:21.017Z,47.10
2022-12-15T16:13:13.675Z,35.92
2022-12-15T16:16:05.398Z,25.77
2022-12-15T16:18:57.269Z,26.50
2022-12-15T16:21:45.012Z,23.25
2022-12-15T16:24:35.080Z,22.23
2022-12-15T16:27:25.861Z,32.47
2022-12-15T16:30:27.073Z,34.97
2022-12-15T16:33:15.442Z,28.60
2022-12-15T16:36:14.238Z,26.40
2022-12-15T16:39:04.839Z,68.22
2022-12-15T16:41:54.297Z,67.38
2022-12-15T16:44:52.527Z,49.20
2022-12-15T16:47:40.983Z,42.97
2022-12-15T16:50:38.116Z,52.92
2022-12-15T16:53:29.337Z,41.80
2022-12-15T16:56:16.961Z,113.70
2022-12-15T16:59:32.073Z,72.32
2022-12-15T17:02:29.858Z,61.03
2022-12-15T17:05:18.595Z,54.05
2022-12-15T17:08:07.767Z,26.17
2022-12-15T17:10:55.669Z,15.18
2022-12-15T17:13:48.303Z,24.25
2022-12-15T17:16:36.588Z,23.95
2022-12-15T17:19:24.296Z,28.48
2022-12-15T17:22:16.130Z,14.25
2022-12-15T17:25:05.310Z,19.83
2022-12-15T17:27:56.462Z,13.90
2022-12-15T17:30:45.581Z,16.77
2022-12-15T17:33:36.247Z,20.30
2022-12-15T17:36:27.706Z,28.20
2022-12-15T17:39:18.407Z,45.20
2022-12-15T17:42:32.760Z,58.50
2022-12-15T17:45:24.693Z,50.25
2022-12-15T17:48:13.978Z,40.38
2022-12-15T17:51:01.973Z,41.05
2022-12-15T17:53:49.793Z,31.80
2022-12-15T17:56:39.895Z,32.67
2022-12-15T17:59:27.615Z,44.10
2022-12-15T18:02:15.802Z,62.15
2022-12-15T18:05:03.677Z,38.08
2022-12-15T18:07:56.228Z,37.78
2022-12-15T18:10:45.281Z,34.25
2022-12-15T18:13:36.118Z,33.60
2022-12-15T18:16:24.051Z,42.22
2022-12-15T18:19:12.942Z,47.10
2022-12-15T18:22:01.462Z,39.80
2022-12-15T18:24:51.401Z,37.45
2022-12-15T18:27:39.109Z,35.78
2022-12-15T18:30:27.484Z,27.17
2022-12-15T18:33:15.369Z,37.83
2022-12-15T18:36:03.135Z,28.50
2022-12-15T18:38:51.636Z,20.75
2022-12-15T18:41:39.430Z,27.85
2022-12-15T18:44:31.488Z,30.50
2022-12-15T18:47:22.426Z,23.58
2022-12-15T18:50:14.995Z,22.33
2022-12-15T18:53:04.355Z,28.60
2022-12-15T18:55:52.079Z,32.20
2022-12-15T18:58:40.306Z,24.30
2022-12-15T19:01:28.113Z,25.13
2022-12-15T19:04:16.240Z,25.67
2022-12-15T19:07:06.777Z,36.58
2022-12-15T19:09:55.141Z,40.47
2022-12-15T19:12:42.858Z,25.67
2022-12-15T19:15:30.814Z,39.08
2022-12-15T19:18:39.193Z,30.48
2022-12-15T19:21:50.347Z,32.85
2022-12-15T19:24:56.373Z,30.15
2022-12-15T19:27:48.436Z,27.85
2022-12-15T19:30:41.994Z,45.20
2022-12-15T19:33:30.563Z,29.60
2022-12-15T19:36:24.461Z,30.40
2022-12-15T19:39:23.366Z,105.32
2022-12-15T19:42:31.995Z,59.03
2022-12-15T19:45:22.726Z,73.72
2022-12-15T19:48:12.261Z,45.13
2022-12-15T19:50:59.936Z,26.42
2022-12-15T19:53:49.008Z,41.85
2022-12-15T19:56:36.802Z,28.67
2022-12-15T19:59:27.027Z,52.95
2022-12-15T20:02:19.470Z,55.92
2022-12-15T20:05:07.865Z,33.22
2022-12-15T20:07:57.056Z,37.05
2022-12-15T20:10:44.691Z,34.28
2022-12-15T20:13:32.723Z,23.35
2022-12-15T20:16:21.667Z,25.25
2022-12-15T20:19:09.718Z,27.50
2022-12-15T20:21:57.884Z,33.33
2022-12-15T20:24:46.691Z,38.65
2022-12-15T20:27:34.431Z,30.42
2022-12-15T20:30:24.515Z,37.88
2022-12-15T20:33:13.218Z,29.00
2022-12-15T20:36:00.906Z,27.98
2022-12-15T20:38:48.871Z,70.10
2022-12-15T20:41:36.496Z,24.02
2022-12-15T20:44:24.822Z,51.72
2022-12-15T20:47:24.054Z,54.92
2022-12-15T20:50:28.771Z,32.22
2022-12-15T20:53:22.081Z,48.20
2022-12-15T20:56:09.814Z,36.50
2022-12-15T20:58:58.661Z,42.25
2022-12-15T21:01:47.197Z,38.05
2022-12-15T21:04:35.373Z,34.35
2022-12-15T21:07:23.211Z,37.00
2022-12-15T21:10:13.096Z,40.45
2022-12-15T21:13:00.921Z,29.42
2022-12-15T21:15:49.057Z,57.00
2022-12-15T21:19:18.700Z,41.85
2022-12-15T21:21:49.560Z,37.33
2022-12-15T21:24:39.861Z,33.20
2022-12-15T21:27:27.587Z,24.60
2022-12-15T21:30:17.702Z,36.80
2022-12-15T21:33:14.932Z,64.57
2022-12-15T21:36:03.126Z,45.78
2022-12-15T21:38:52.740Z,36.45
2022-12-15T21:41:43.409Z,31.20
2022-12-15T21:44:31.066Z,31.38
2022-12-15T21:47:52.144Z,39.10
2022-12-15T21:50:43.449Z,40.90
2022-12-15T21:53:31.156Z,46.72
2022-12-15T21:56:21.323Z,35.88
2022-12-15T21:59:14.717Z,41.95
2022-12-15T22:02:15.882Z,32.97
2022-12-15T22:05:03.795Z,52.25
2022-12-15T22:07:52.423Z,40.03
2022-12-15T22:10:40.207Z,33.78
2022-12-15T22:13:27.909Z,44.72
2022-12-15T22:16:16.082Z,39.17
2022-12-15T22:19:09.094Z,41.03
2022-12-15T22:21:56.821Z,48.08
2022-12-15T22:24:44.903Z,39.92
2022-12-15T22:27:34.325Z,42.63
2022-12-15T22:30:26.783Z,32.35
2022-12-15T22:33:21.923Z,50.08
2022-12-15T22:36:09.765Z,49.10
2022-12-15T22:38:57.767Z,46.13
2022-12-15T22:41:50.193Z,71.30
2022-12-15T22:44:38.256Z,45.87
2022-12-15T22:47:25.912Z,43.80
2022-12-15T22:50:20.351Z,53.40
2022-12-15T22:53:18.433Z,38.90
2022-12-15T22:56:30.828Z,26.00
2022-12-15T22:59:27.255Z,26.02
2022-12-15T23:02:14.913Z,27.27
2022-12-15T23:05:02.672Z,25.48
2022-12-15T23:07:50.785Z,25.52
2022-12-15T23:10:57.953Z,31.00
2022-12-15T23:13:45.774Z,36.53
2022-12-15T23:16:34.485Z,28.90
2022-12-15T23:19:25.226Z,25.85
2022-12-15T23:22:14.340Z,23.80
2022-12-15T23:25:02.089Z,22.20
2022-12-15T23:27:49.832Z,36.90
2022-12-15T23:30:38.399Z,27.10
2022-12-15T23:33:28.307Z,23.85
2022-12-15T23:36:16.207Z,30.35
2022-12-15T23:39:04.076Z,20.60
2022-12-15T23:41:51.792Z,45.95
2022-12-15T23:44:39.779Z,24.05
2022-12-15T23:47:27.514Z,32.85
2022-12-15T23:50:15.383Z,32.55
2022-12-15T23:53:04.553Z,22.85
2022-12-15T23:55:52.175Z,23.50
2022-12-15T23:58:42.652Z,31.83
